sensor_id;sensor_type;location;lat;lon;timestamp;P1;durP1;ratioP1;P2;durP2;ratioP2
76051;SDS011;64751;48.708;9.710;2023-06-24T14:32:36;0.00;;;0.00;;
76051;SDS011;64751;48.708;9.710;2023-06-24T14:35:05;0.00;;;0.00;;
76051;SDS011;64751;48.708;9.710;2023-06-24T14:37:33;0.00;;;0.00;;
76051;SDS011;64751;48.708;9.710;2023-06-24T14:40:01;0.00;;;0.00;;
76051;SDS011;64751;48.708;9.710;2023-06-24T14:42:29;0.00;;;0.00;;
76051;SDS011;64751;48.708;9.710;2023-06-24T14:44:57;0.00;;;0.00;;
76051;SDS011;64751;48.708;9.710;2023-06-24T14:47:25;0.32;;;0.10;;
76051;SDS011;64751;48.708;9.710;2023-06-24T14:49:54;0.00;;;0.00;;
76051;SDS011;64751;48.708;9.710;2023-06-24T14:52:22;0.10;;;0.10;;
76051;SDS011;64751;48.708;9.710;2023-06-24T14:54:49;0.05;;;0.00;;
76051;SDS011;64751;48.708;9.710;2023-06-24T14:57:17;0.00;;;0.00;;
76051;SDS011;64751;48.708;9.710;2023-06-24T14:59:44;0.00;;;0.00;;
76051;SDS011;64751;48.708;9.710;2023-06-24T15:02:12;0.20;;;0.00;;
76051;SDS011;64751;48.708;9.710;2023-06-24T15:04:40;0.10;;;0.10;;
76051;SDS011;64751;48.708;9.710;2023-06-24T15:07:09;0.10;;;0.10;;
76051;SDS011;64751;48.708;9.710;2023-06-24T15:09:36;0.00;;;0.00;;
76051;SDS011;64751;48.708;9.710;2023-06-24T15:12:04;0.10;;;0.05;;
76051;SDS011;64751;48.708;9.710;2023-06-24T15:14:32;0.00;;;0.00;;
76051;SDS011;64751;48.708;9.710;2023-06-24T15:17:00;0.10;;;0.10;;
76051;SDS011;64751;48.708;9.710;2023-06-24T15:19:28;0.10;;;0.10;;
76051;SDS011;64751;48.708;9.710;2023-06-24T15:21:55;0.08;;;0.08;;
76051;SDS011;64751;48.708;9.710;2023-06-24T15:24:24;0.30;;;0.05;;
76051;SDS011;64751;48.708;9.710;2023-06-24T15:26:51;0.10;;;0.10;;
76051;SDS011;64751;48.708;9.710;2023-06-24T15:29:19;0.00;;;0.00;;
76051;SDS011;64751;48.708;9.710;2023-06-24T15:31:46;0.00;;;0.00;;
76051;SDS011;64751;48.708;9.710;2023-06-24T15:34:14;0.10;;;0.10;;
76051;SDS011;64751;48.708;9.710;2023-06-24T15:36:41;0.10;;;0.10;;
76051;SDS011;64751;48.708;9.710;2023-06-24T15:39:09;0.00;;;0.00;;
76051;SDS011;64751;48.708;9.710;2023-06-24T15:41:38;0.00;;;0.00;;
76051;SDS011;64751;48.708;9.710;2023-06-24T15:44:06;0.03;;;0.03;;
76051;SDS011;64751;48.708;9.710;2023-06-24T15:46:33;0.00;;;0.00;;
76051;SDS011;64751;48.708;9.710;2023-06-24T15:49:02;0.00;;;0.00;;
76051;SDS011;64751;48.708;9.710;2023-06-24T15:51:30;0.10;;;0.10;;
76051;SDS011;64751;48.708;9.710;2023-06-24T15:53:57;0.00;;;0.00;;
76051;SDS011;64751;48.708;9.710;2023-06-24T15:56:25;0.10;;;0.10;;
76051;SDS011;64751;48.708;9.710;2023-06-24T15:58:54;0.00;;;0.00;;
76051;SDS011;64751;48.708;9.710;2023-06-24T16:01:21;0.00;;;0.00;;
76051;SDS011;64751;48.708;9.710;2023-06-24T16:03:49;0.00;;;0.00;;
76051;SDS011;64751;48.708;9.710;2023-06-24T16:06:16;0.20;;;0.00;;
76051;SDS011;64751;48.708;9.710;2023-06-24T16:08:45;0.03;;;0.03;;
76051;SDS011;64751;48.708;9.710;2023-06-24T16:11:12;0.10;;;0.10;;
76051;SDS011;64751;48.708;9.710;2023-06-24T16:13:40;0.00;;;0.00;;
76051;SDS011;64751;48.708;9.710;2023-06-24T16:16:09;0.05;;;0.05;;
76051;SDS011;64751;48.708;9.710;2023-06-24T16:18:37;0.00;;;0.00;;
76051;SDS011;64751;48.708;9.710;2023-06-24T16:21:04;0.00;;;0.00;;
76051;SDS011;64751;48.708;9.710;2023-06-24T16:23:32;0.10;;;0.10;;
76051;SDS011;64751;48.708;9.710;2023-06-24T16:25:59;0.10;;;0.08;;
76051;SDS011;64751;48.708;9.710;2023-06-24T16:28:27;0.00;;;0.00;;
76051;SDS011;64751;48.708;9.710;2023-06-24T16:30:55;0.08;;;0.08;;
76051;SDS011;64751;48.708;9.710;2023-06-24T16:33:24;0.00;;;0.00;;
76051;SDS011;64751;48.708;9.710;2023-06-24T16:35:51;0.00;;;0.00;;
76051;SDS011;64751;48.708;9.710;2023-06-24T16:38:19;0.13;;;0.10;;
76051;SDS011;64751;48.708;9.710;2023-06-24T16:40:46;0.00;;;0.00;;
76051;SDS011;64751;48.708;9.710;2023-06-24T16:43:14;0.00;;;0.00;;
76051;SDS011;64751;48.708;9.710;2023-06-24T16:45:42;0.10;;;0.00;;
76051;SDS011;64751;48.708;9.710;2023-06-24T16:48:09;0.00;;;0.00;;
76051;SDS011;64751;48.708;9.710;2023-06-24T16:50:38;0.03;;;0.03;;
76051;SDS011;64751;48.708;9.710;2023-06-24T16:53:06;0.00;;;0.00;;
76051;SDS011;64751;48.708;9.710;2023-06-24T16:55:35;0.00;;;0.00;;
76051;SDS011;64751;48.708;9.710;2023-06-24T16:58:04;0.10;;;0.10;;
76051;SDS011;64751;48.708;9.710;2023-06-24T17:00:32;0.00;;;0.00;;
76051;SDS011;64751;48.708;9.710;2023-06-24T17:03:00;0.00;;;0.00;;
76051;SDS011;64751;48.708;9.710;2023-06-24T17:05:27;0.05;;;0.00;;
76051;SDS011;64751;48.708;9.710;2023-06-24T17:07:57;0.10;;;0.10;;
76051;SDS011;64751;48.708;9.710;2023-06-24T17:10:24;0.10;;;0.10;;
76051;SDS011;64751;48.708;9.710;2023-06-24T17:12:52;0.00;;;0.00;;
76051;SDS011;64751;48.708;9.710;2023-06-24T17:15:20;0.00;;;0.00;;
76051;SDS011;64751;48.708;9.710;2023-06-24T17:17:48;0.10;;;0.10;;
76051;SDS011;64751;48.708;9.710;2023-06-24T17:20:15;0.00;;;0.00;;
76051;SDS011;64751;48.708;9.710;2023-06-24T17:22:46;0.10;;;0.10;;
76051;SDS011;64751;48.708;9.710;2023-06-24T17:25:15;0.00;;;0.00;;
76051;SDS011;64751;48.708;9.710;2023-06-24T17:27:42;0.08;;;0.08;;
76051;SDS011;64751;48.708;9.710;2023-06-24T17:30:10;0.00;;;0.00;;
76051;SDS011;64751;48.708;9.710;2023-06-24T17:32:38;0.00;;;0.00;;
76051;SDS011;64751;48.708;9.710;2023-06-24T17:35:06;0.00;;;0.00;;
76051;SDS011;64751;48.708;9.710;2023-06-24T17:37:34;0.10;;;0.10;;
76051;SDS011;64751;48.708;9.710;2023-06-24T17:40:02;0.00;;;0.00;;
76051;SDS011;64751;48.708;9.710;2023-06-24T17:42:31;0.03;;;0.03;;
76051;SDS011;64751;48.708;9.710;2023-06-24T17:44:59;0.00;;;0.00;;
76051;SDS011;64751;48.708;9.710;2023-06-24T17:47:26;0.00;;;0.00;;
76051;SDS011;64751;48.708;9.710;2023-06-24T17:49:54;0.00;;;0.00;;
76051;SDS011;64751;48.708;9.710;2023-06-24T17:52:21;0.10;;;0.10;;
76051;SDS011;64751;48.708;9.710;2023-06-24T17:54:49;0.00;;;0.00;;
76051;SDS011;64751;48.708;9.710;2023-06-24T17:57:17;0.10;;;0.10;;
76051;SDS011;64751;48.708;9.710;2023-06-24T17:59:46;0.00;;;0.00;;
76051;SDS011;64751;48.708;9.710;2023-06-24T18:02:13;0.13;;;0.10;;
76051;SDS011;64751;48.708;9.710;2023-06-24T18:04:41;0.00;;;0.00;;
76051;SDS011;64751;48.708;9.710;2023-06-24T18:07:08;0.00;;;0.00;;
76051;SDS011;64751;48.708;9.710;2023-06-24T18:09:40;0.10;;;0.00;;
76051;SDS011;64751;48.708;9.710;2023-06-24T18:12:08;0.00;;;0.00;;
76051;SDS011;64751;48.708;9.710;2023-06-24T18:14:38;0.00;;;0.00;;
76051;SDS011;64751;48.708;9.710;2023-06-24T18:17:07;0.00;;;0.00;;
76051;SDS011;64751;48.708;9.710;2023-06-24T18:19:35;0.00;;;0.00;;
76051;SDS011;64751;48.708;9.710;2023-06-24T18:22:03;0.00;;;0.00;;
76051;SDS011;64751;48.708;9.710;2023-06-24T18:24:31;0.00;;;0.00;;
76051;SDS011;64751;48.708;9.710;2023-06-24T18:26:58;0.00;;;0.00;;
76051;SDS011;64751;48.708;9.710;2023-06-24T18:29:27;0.20;;;0.10;;
76051;SDS011;64751;48.708;9.710;2023-06-24T18:31:58;0.17;;;0.00;;
76051;SDS011;64751;48.708;9.710;2023-06-24T18:34:32;0.00;;;0.00;;
76051;SDS011;64751;48.708;9.710;2023-06-24T18:37:00;0.00;;;0.00;;
76051;SDS011;64751;48.708;9.710;2023-06-24T18:39:28;0.08;;;0.00;;
76051;SDS011;64751;48.708;9.710;2023-06-24T18:41:56;0.00;;;0.00;;
76051;SDS011;64751;48.708;9.710;2023-06-24T18:44:23;0.00;;;0.00;;
76051;SDS011;64751;48.708;9.710;2023-06-24T18:46:51;0.00;;;0.00;;
76051;SDS011;64751;48.708;9.710;2023-06-24T18:49:19;0.15;;;0.10;;
76051;SDS011;64751;48.708;9.710;2023-06-24T18:51:48;1.10;;;0.60;;
76051;SDS011;64751;48.708;9.710;2023-06-24T18:54:15;0.82;;;0.57;;
76051;SDS011;64751;48.708;9.710;2023-06-24T18:56:45;1.00;;;0.70;;
76051;SDS011;64751;48.708;9.710;2023-06-24T18:59:13;1.08;;;0.80;;
76051;SDS011;64751;48.708;9.710;2023-06-24T19:01:41;1.08;;;0.50;;
76051;SDS011;64751;48.708;9.710;2023-06-24T19:04:11;1.00;;;0.70;;
76051;SDS011;64751;48.708;9.710;2023-06-24T19:06:39;0.82;;;0.50;;
76051;SDS011;64751;48.708;9.710;2023-06-24T19:09:08;0.73;;;0.60;;
76051;SDS011;64751;48.708;9.710;2023-06-24T19:11:35;0.50;;;0.32;;
76051;SDS011;64751;48.708;9.710;2023-06-24T19:14:03;0.63;;;0.50;;
76051;SDS011;64751;48.708;9.710;2023-06-24T19:16:31;1.08;;;0.65;;
76051;SDS011;64751;48.708;9.710;2023-06-24T19:18:59;0.30;;;0.30;;
76051;SDS011;64751;48.708;9.710;2023-06-24T19:21:28;0.52;;;0.40;;
76051;SDS011;64751;48.708;9.710;2023-06-24T19:23:56;0.90;;;0.60;;
76051;SDS011;64751;48.708;9.710;2023-06-24T19:26:25;0.47;;;0.47;;
76051;SDS011;64751;48.708;9.710;2023-06-24T19:28:53;0.00;;;0.00;;
76051;SDS011;64751;48.708;9.710;2023-06-24T19:31:20;0.00;;;0.00;;
76051;SDS011;64751;48.708;9.710;2023-06-24T19:33:48;0.35;;;0.10;;
76051;SDS011;64751;48.708;9.710;2023-06-24T19:36:15;0.10;;;0.10;;
76051;SDS011;64751;48.708;9.710;2023-06-24T19:38:43;0.10;;;0.10;;
76051;SDS011;64751;48.708;9.710;2023-06-24T19:41:11;0.00;;;0.00;;
76051;SDS011;64751;48.708;9.710;2023-06-24T19:43:39;0.00;;;0.00;;
76051;SDS011;64751;48.708;9.710;2023-06-24T19:46:07;0.10;;;0.10;;
76051;SDS011;64751;48.708;9.710;2023-06-24T19:48:34;0.00;;;0.00;;
76051;SDS011;64751;48.708;9.710;2023-06-24T19:51:02;0.10;;;0.10;;
76051;SDS011;64751;48.708;9.710;2023-06-24T19:53:30;0.00;;;0.00;;
76051;SDS011;64751;48.708;9.710;2023-06-24T19:55:57;0.00;;;0.00;;
76051;SDS011;64751;48.708;9.710;2023-06-24T19:58:24;0.00;;;0.00;;
76051;SDS011;64751;48.708;9.710;2023-06-24T20:00:53;0.13;;;0.10;;
76051;SDS011;64751;48.708;9.710;2023-06-24T20:03:21;0.10;;;0.00;;
76051;SDS011;64751;48.708;9.710;2023-06-24T20:05:48;0.00;;;0.00;;
76051;SDS011;64751;48.708;9.710;2023-06-24T20:08:16;0.00;;;0.00;;
76051;SDS011;64751;48.708;9.710;2023-06-24T20:10:44;0.00;;;0.00;;
76051;SDS011;64751;48.708;9.710;2023-06-24T20:13:12;0.00;;;0.00;;
76051;SDS011;64751;48.708;9.710;2023-06-24T20:15:39;0.10;;;0.00;;
76051;SDS011;64751;48.708;9.710;2023-06-24T20:18:09;0.00;;;0.00;;
76051;SDS011;64751;48.708;9.710;2023-06-24T20:20:37;0.00;;;0.00;;
76051;SDS011;64751;48.708;9.710;2023-06-24T20:23:04;0.10;;;0.10;;
76051;SDS011;64751;48.708;9.710;2023-06-24T20:25:32;0.00;;;0.00;;
76051;SDS011;64751;48.708;9.710;2023-06-24T20:28:00;0.10;;;0.10;;
76051;SDS011;64751;48.708;9.710;2023-06-24T20:30:30;0.00;;;0.00;;
76051;SDS011;64751;48.708;9.710;2023-06-24T20:32:58;0.00;;;0.00;;
76051;SDS011;64751;48.708;9.710;2023-06-24T20:35:27;0.22;;;0.20;;
76051;SDS011;64751;48.708;9.710;2023-06-24T20:37:54;0.10;;;0.10;;
76051;SDS011;64751;48.708;9.710;2023-06-24T20:40:22;0.10;;;0.10;;
76051;SDS011;64751;48.708;9.710;2023-06-24T20:42:49;0.03;;;0.03;;
76051;SDS011;64751;48.708;9.710;2023-06-24T20:45:17;0.10;;;0.10;;
76051;SDS011;64751;48.708;9.710;2023-06-24T20:47:45;0.05;;;0.05;;
76051;SDS011;64751;48.708;9.710;2023-06-24T20:50:12;0.00;;;0.00;;
76051;SDS011;64751;48.708;9.710;2023-06-24T20:52:41;0.10;;;0.08;;
76051;SDS011;64751;48.708;9.710;2023-06-24T20:55:09;0.00;;;0.00;;
76051;SDS011;64751;48.708;9.710;2023-06-24T20:57:36;0.00;;;0.00;;
76051;SDS011;64751;48.708;9.710;2023-06-24T21:00:04;0.00;;;0.00;;
76051;SDS011;64751;48.708;9.710;2023-06-24T21:02:33;0.00;;;0.00;;
76051;SDS011;64751;48.708;9.710;2023-06-24T21:05:01;0.00;;;0.00;;
76051;SDS011;64751;48.708;9.710;2023-06-24T21:07:28;0.10;;;0.10;;
76051;SDS011;64751;48.708;9.710;2023-06-24T21:09:57;0.00;;;0.00;;
76051;SDS011;64751;48.708;9.710;2023-06-24T21:12:25;0.10;;;0.10;;
76051;SDS011;64751;48.708;9.710;2023-06-24T21:14:52;0.00;;;0.00;;
76051;SDS011;64751;48.708;9.710;2023-06-24T21:17:21;0.10;;;0.10;;
76051;SDS011;64751;48.708;9.710;2023-06-24T21:19:48;0.00;;;0.00;;
76051;SDS011;64751;48.708;9.710;2023-06-24T21:22:16;0.03;;;0.03;;
76051;SDS011;64751;48.708;9.710;2023-06-24T21:24:43;0.00;;;0.00;;
76051;SDS011;64751;48.708;9.710;2023-06-24T21:27:13;0.00;;;0.00;;
76051;SDS011;64751;48.708;9.710;2023-06-24T21:29:40;0.00;;;0.00;;
76051;SDS011;64751;48.708;9.710;2023-06-24T21:32:08;0.00;;;0.00;;
76051;SDS011;64751;48.708;9.710;2023-06-24T21:34:36;0.00;;;0.00;;
76051;SDS011;64751;48.708;9.710;2023-06-24T21:37:03;0.00;;;0.00;;
76051;SDS011;64751;48.708;9.710;2023-06-24T21:39:31;0.00;;;0.00;;
76051;SDS011;64751;48.708;9.710;2023-06-24T21:41:59;0.00;;;0.00;;
76051;SDS011;64751;48.708;9.710;2023-06-24T21:44:28;0.00;;;0.00;;
76051;SDS011;64751;48.708;9.710;2023-06-24T21:46:55;0.00;;;0.00;;
76051;SDS011;64751;48.708;9.710;2023-06-24T21:49:23;0.10;;;0.10;;
76051;SDS011;64751;48.708;9.710;2023-06-24T21:51:51;0.00;;;0.00;;
76051;SDS011;64751;48.708;9.710;2023-06-24T21:54:19;0.00;;;0.00;;
76051;SDS011;64751;48.708;9.710;2023-06-24T21:56:47;0.10;;;0.10;;
76051;SDS011;64751;48.708;9.710;2023-06-24T21:59:14;0.03;;;0.03;;
